sensor_id;sensor_type;location;lat;lon;timestamp;pressure;altitude;pressure_sealevel;temperature;humidity
43824;BME280;29470;53.550;9.926;2022-07-22T00:00:24;101246.22;;;19.60;100.00
43824;BME280;29470;53.550;9.926;2022-07-22T00:05:27;101247.19;;;19.62;100.00
43824;BME280;29470;53.550;9.926;2022-07-22T00:10:30;101263.41;;;19.53;100.00
43824;BME280;29470;53.550;9.926;2022-07-22T00:15:34;101273.53;;;19.23;100.00
43824;BME280;29470;53.550;9.926;2022-07-22T00:20:37;101278.53;;;19.17;100.00
43824;BME280;29470;53.550;9.926;2022-07-22T00:25:40;101275.84;;;18.95;100.00
43824;BME280;29470;53.550;9.926;2022-07-22T00:30:44;101286.91;;;18.88;100.00
43824;BME280;29470;53.550;9.926;2022-07-22T00:35:47;101276.72;;;18.75;100.00
43824;BME280;29470;53.550;9.926;2022-07-22T00:40:50;101291.59;;;18.76;100.00
43824;BME280;29470;53.550;9.926;2022-07-22T00:45:55;101289.84;;;18.57;100.00
43824;BME280;29470;53.550;9.926;2022-07-22T00:50:59;101297.31;;;18.47;100.00
43824;BME280;29470;53.550;9.926;2022-07-22T00:56:03;101302.63;;;18.49;100.00
43824;BME280;29470;53.550;9.926;2022-07-22T01:01:07;101298.72;;;18.21;100.00
43824;BME280;29470;53.550;9.926;2022-07-22T01:06:11;101307.09;;;18.14;100.00
43824;BME280;29470;53.550;9.926;2022-07-22T01:11:16;101304.41;;;17.94;100.00
43824;BME280;29470;53.550;9.926;2022-07-22T01:16:21;101304.72;;;17.64;100.00
43824;BME280;29470;53.550;9.926;2022-07-22T01:21:26;101313.91;;;17.56;100.00
43824;BME280;29470;53.550;9.926;2022-07-22T01:26:29;101316.38;;;17.52;100.00
43824;BME280;29470;53.550;9.926;2022-07-22T01:31:32;101314.31;;;17.47;100.00
43824;BME280;29470;53.550;9.926;2022-07-22T01:36:36;101324.41;;;17.39;100.00
43824;BME280;29470;53.550;9.926;2022-07-22T01:41:39;101326.91;;;17.03;100.00
43824;BME280;29470;53.550;9.926;2022-07-22T01:46:46;101331.16;;;17.17;100.00
43824;BME280;29470;53.550;9.926;2022-07-22T01:51:52;101336.59;;;17.22;100.00
43824;BME280;29470;53.550;9.926;2022-07-22T01:56:55;101335.13;;;17.11;100.00
43824;BME280;29470;53.550;9.926;2022-07-22T02:01:59;101338.91;;;16.99;100.00
43824;BME280;29470;53.550;9.926;2022-07-22T02:07:03;101345.09;;;17.18;100.00
43824;BME280;29470;53.550;9.926;2022-07-22T02:12:06;101343.91;;;17.11;100.00
43824;BME280;29470;53.550;9.926;2022-07-22T02:17:16;101347.22;;;17.08;100.00
43824;BME280;29470;53.550;9.926;2022-07-22T02:22:20;101345.78;;;16.97;100.00
43824;BME280;29470;53.550;9.926;2022-07-22T02:27:24;101341.78;;;17.04;100.00
43824;BME280;29470;53.550;9.926;2022-07-22T02:32:27;101346.56;;;16.96;100.00
43824;BME280;29470;53.550;9.926;2022-07-22T02:37:31;101348.47;;;16.99;100.00
43824;BME280;29470;53.550;9.926;2022-07-22T02:42:34;101357.84;;;17.12;100.00
43824;BME280;29470;53.550;9.926;2022-07-22T02:47:45;101354.75;;;17.02;100.00
43824;BME280;29470;53.550;9.926;2022-07-22T02:52:50;101363.47;;;16.86;100.00
43824;BME280;29470;53.550;9.926;2022-07-22T02:57:56;101368.06;;;17.07;100.00
43824;BME280;29470;53.550;9.926;2022-07-22T03:02:59;101376.41;;;17.00;100.00
43824;BME280;29470;53.550;9.926;2022-07-22T03:08:04;101378.56;;;16.75;100.00
43824;BME280;29470;53.550;9.926;2022-07-22T03:13:06;101370.56;;;16.72;100.00
43824;BME280;29470;53.550;9.926;2022-07-22T03:18:09;101376.53;;;16.86;100.00
43824;BME280;29470;53.550;9.926;2022-07-22T03:23:14;101380.59;;;16.81;100.00
43824;BME280;29470;53.550;9.926;2022-07-22T03:28:17;101377.25;;;16.84;100.00
43824;BME280;29470;53.550;9.926;2022-07-22T03:33:20;101384.50;;;16.73;100.00
43824;BME280;29470;53.550;9.926;2022-07-22T03:38:25;101376.19;;;16.80;100.00
43824;BME280;29470;53.550;9.926;2022-07-22T03:43:28;101384.00;;;16.63;100.00
43824;BME280;29470;53.550;9.926;2022-07-22T03:48:30;101377.97;;;16.64;100.00
43824;BME280;29470;53.550;9.926;2022-07-22T03:53:35;101375.22;;;16.78;100.00
43824;BME280;29470;53.550;9.926;2022-07-22T03:58:38;101385.81;;;16.64;100.00
43824;BME280;29470;53.550;9.926;2022-07-22T04:03:41;101386.41;;;16.75;100.00
43824;BME280;29470;53.550;9.926;2022-07-22T04:08:52;101390.50;;;16.70;100.00
43824;BME280;29470;53.550;9.926;2022-07-22T04:13:57;101383.81;;;16.75;100.00
43824;BME280;29470;53.550;9.926;2022-07-22T04:19:00;101380.09;;;16.72;100.00
43824;BME280;29470;53.550;9.926;2022-07-22T04:24:16;101389.50;;;16.68;100.00
43824;BME280;29470;53.550;9.926;2022-07-22T04:29:21;101397.50;;;16.40;100.00
43824;BME280;29470;53.550;9.926;2022-07-22T04:34:24;101399.19;;;16.23;100.00
43824;BME280;29470;53.550;9.926;2022-07-22T04:39:29;101403.00;;;16.29;100.00
43824;BME280;29470;53.550;9.926;2022-07-22T04:44:33;101402.72;;;16.40;100.00
43824;BME280;29470;53.550;9.926;2022-07-22T04:49:36;101393.31;;;16.58;100.00
43824;BME280;29470;53.550;9.926;2022-07-22T04:54:42;101401.81;;;16.71;100.00
43824;BME280;29470;53.550;9.926;2022-07-22T04:59:45;101405.91;;;16.82;100.00
43824;BME280;29470;53.550;9.926;2022-07-22T05:04:48;101404.00;;;17.11;100.00
43824;BME280;29470;53.550;9.926;2022-07-22T05:09:52;101402.53;;;17.16;100.00
43824;BME280;29470;53.550;9.926;2022-07-22T05:14:55;101406.53;;;17.10;100.00
43824;BME280;29470;53.550;9.926;2022-07-22T05:19:58;101420.47;;;16.93;100.00
43824;BME280;29470;53.550;9.926;2022-07-22T05:25:03;101422.09;;;16.91;100.00
43824;BME280;29470;53.550;9.926;2022-07-22T05:30:08;101422.47;;;17.14;100.00
43824;BME280;29470;53.550;9.926;2022-07-22T05:35:11;101427.53;;;16.79;100.00
43824;BME280;29470;53.550;9.926;2022-07-22T05:40:15;101427.03;;;17.18;100.00
43824;BME280;29470;53.550;9.926;2022-07-22T05:45:19;101421.06;;;17.21;100.00
43824;BME280;29470;53.550;9.926;2022-07-22T05:50:26;101428.00;;;17.54;99.33
43824;BME280;29470;53.550;9.926;2022-07-22T05:55:31;101431.34;;;17.34;98.44
43824;BME280;29470;53.550;9.926;2022-07-22T06:00:34;101430.53;;;17.19;97.48
43824;BME280;29470;53.550;9.926;2022-07-22T06:05:37;101435.44;;;17.29;98.60
43824;BME280;29470;53.550;9.926;2022-07-22T06:10:44;101426.47;;;17.75;98.41
43824;BME280;29470;53.550;9.926;2022-07-22T06:15:47;101421.38;;;17.78;96.15
43824;BME280;29470;53.550;9.926;2022-07-22T06:20:51;101424.81;;;17.77;94.96
43824;BME280;29470;53.550;9.926;2022-07-22T06:25:56;101424.50;;;17.71;97.25
43824;BME280;29470;53.550;9.926;2022-07-22T06:31:04;101424.00;;;18.87;92.06
43824;BME280;29470;53.550;9.926;2022-07-22T06:36:07;101428.78;;;19.76;84.07
43824;BME280;29470;53.550;9.926;2022-07-22T06:41:13;101431.94;;;19.07;86.85
43824;BME280;29470;53.550;9.926;2022-07-22T06:46:54;101434.06;;;18.60;86.64
43824;BME280;29470;53.550;9.926;2022-07-22T06:51:57;101434.56;;;18.33;90.40
43824;BME280;29470;53.550;9.926;2022-07-22T06:57:04;101433.16;;;19.15;87.60
43824;BME280;29470;53.550;9.926;2022-07-22T07:02:08;101426.88;;;19.31;85.35
43824;BME280;29470;53.550;9.926;2022-07-22T07:07:12;101435.38;;;18.88;85.48
43824;BME280;29470;53.550;9.926;2022-07-22T07:12:32;101437.31;;;19.10;84.18
43824;BME280;29470;53.550;9.926;2022-07-22T07:17:40;101441.50;;;19.26;83.98
43824;BME280;29470;53.550;9.926;2022-07-22T07:22:45;101451.56;;;18.97;82.84
43824;BME280;29470;53.550;9.926;2022-07-22T07:27:50;101449.16;;;19.02;82.52
43824;BME280;29470;53.550;9.926;2022-07-22T07:33:01;101450.56;;;18.57;85.50
43824;BME280;29470;53.550;9.926;2022-07-22T07:38:05;101464.81;;;18.82;83.15
43824;BME280;29470;53.550;9.926;2022-07-22T07:43:10;101459.75;;;18.67;83.66
43824;BME280;29470;53.550;9.926;2022-07-22T07:48:13;101452.56;;;19.79;78.21
43824;BME280;29470;53.550;9.926;2022-07-22T07:53:17;101458.94;;;20.27;74.82
43824;BME280;29470;53.550;9.926;2022-07-22T07:58:22;101465.28;;;20.32;74.30
43824;BME280;29470;53.550;9.926;2022-07-22T08:03:25;101464.94;;;19.82;74.46
43824;BME280;29470;53.550;9.926;2022-07-22T08:08:29;101463.72;;;19.54;75.51
43824;BME280;29470;53.550;9.926;2022-07-22T08:13:39;101469.66;;;19.69;74.84
43824;BME280;29470;53.550;9.926;2022-07-22T08:18:49;101487.41;;;19.36;75.35
43824;BME280;29470;53.550;9.926;2022-07-22T08:23:53;101486.28;;;19.70;74.11
43824;BME280;29470;53.550;9.926;2022-07-22T08:28:58;101486.63;;;19.58;74.53
43824;BME280;29470;53.550;9.926;2022-07-22T08:34:03;101497.16;;;19.79;71.92
43824;BME280;29470;53.550;9.926;2022-07-22T08:39:06;101491.78;;;19.76;71.81
43824;BME280;29470;53.550;9.926;2022-07-22T08:44:10;101501.72;;;20.03;70.73
43824;BME280;29470;53.550;9.926;2022-07-22T08:49:14;101498.56;;;20.54;67.88
43824;BME280;29470;53.550;9.926;2022-07-22T08:54:50;101491.50;;;21.44;65.62
43824;BME280;29470;53.550;9.926;2022-07-22T08:59:59;101496.31;;;21.08;63.30
43824;BME280;29470;53.550;9.926;2022-07-22T09:05:06;101491.41;;;21.17;61.46
43824;BME280;29470;53.550;9.926;2022-07-22T09:10:31;101507.34;;;21.22;61.05
43824;BME280;29470;53.550;9.926;2022-07-22T09:16:06;101498.03;;;21.31;59.12
43824;BME280;29470;53.550;9.926;2022-07-22T09:21:42;101504.34;;;21.84;58.06
43824;BME280;29470;53.550;9.926;2022-07-22T09:26:54;101502.19;;;21.49;59.07
43824;BME280;29470;53.550;9.926;2022-07-22T09:32:12;101504.13;;;20.83;62.83
43824;BME280;29470;53.550;9.926;2022-07-22T09:37:34;101511.00;;;19.75;65.32
43824;BME280;29470;53.550;9.926;2022-07-22T09:42:44;101511.53;;;19.87;65.20
43824;BME280;29470;53.550;9.926;2022-07-22T09:47:50;101511.94;;;20.60;62.70
43824;BME280;29470;53.550;9.926;2022-07-22T09:53:12;101515.31;;;20.78;61.20
43824;BME280;29470;53.550;9.926;2022-07-22T09:58:21;101511.69;;;21.68;60.04
43824;BME280;29470;53.550;9.926;2022-07-22T10:03:27;101514.84;;;21.59;58.17
43824;BME280;29470;53.550;9.926;2022-07-22T10:08:32;101527.78;;;21.53;58.31
43824;BME280;29470;53.550;9.926;2022-07-22T10:13:38;101528.06;;;21.61;58.80
43824;BME280;29470;53.550;9.926;2022-07-22T10:18:46;101531.03;;;21.46;58.53
43824;BME280;29470;53.550;9.926;2022-07-22T10:24:07;101532.69;;;21.67;57.16
43824;BME280;29470;53.550;9.926;2022-07-22T10:29:28;101543.44;;;20.80;59.34
43824;BME280;29470;53.550;9.926;2022-07-22T10:34:33;101538.84;;;21.20;59.56
43824;BME280;29470;53.550;9.926;2022-07-22T10:40:09;101542.84;;;20.66;60.49
43824;BME280;29470;53.550;9.926;2022-07-22T10:45:17;101547.81;;;21.02;60.06
43824;BME280;29470;53.550;9.926;2022-07-22T10:56:08;101534.38;;;21.89;57.06
43824;BME280;29470;53.550;9.926;2022-07-22T11:01:15;101539.03;;;21.49;55.67
43824;BME280;29470;53.550;9.926;2022-07-22T11:06:23;101529.59;;;22.30;54.83
43824;BME280;29470;53.550;9.926;2022-07-22T11:11:38;101521.13;;;23.53;50.62
43824;BME280;29470;53.550;9.926;2022-07-22T11:16:44;101530.00;;;22.15;53.22
43824;BME280;29470;53.550;9.926;2022-07-22T11:21:51;101535.44;;;21.47;55.16
43824;BME280;29470;53.550;9.926;2022-07-22T11:26:56;101536.28;;;21.69;56.00
43824;BME280;29470;53.550;9.926;2022-07-22T11:32:06;101533.25;;;20.88;58.53
43824;BME280;29470;53.550;9.926;2022-07-22T11:37:12;101541.69;;;21.26;57.83
43824;BME280;29470;53.550;9.926;2022-07-22T11:42:16;101547.34;;;21.13;59.11
43824;BME280;29470;53.550;9.926;2022-07-22T11:47:19;101535.34;;;21.44;58.64
43824;BME280;29470;53.550;9.926;2022-07-22T11:52:23;101528.63;;;22.27;55.93
43824;BME280;29470;53.550;9.926;2022-07-22T11:57:26;101531.47;;;22.07;55.95
43824;BME280;29470;53.550;9.926;2022-07-22T12:02:29;101535.03;;;21.83;56.35
43824;BME280;29470;53.550;9.926;2022-07-22T12:07:40;101532.25;;;20.65;60.32
43824;BME280;29470;53.550;9.926;2022-07-22T12:12:46;101533.97;;;20.41;60.15
43824;BME280;29470;53.550;9.926;2022-07-22T12:17:49;101526.22;;;21.34;57.40
43824;BME280;29470;53.550;9.926;2022-07-22T12:22:53;101538.16;;;21.48;57.52
43824;BME280;29470;53.550;9.926;2022-07-22T12:28:00;101524.59;;;21.86;56.71
43824;BME280;29470;53.550;9.926;2022-07-22T12:33:03;101520.13;;;22.10;54.03
43824;BME280;29470;53.550;9.926;2022-07-22T12:38:08;101516.03;;;21.92;55.36
43824;BME280;29470;53.550;9.926;2022-07-22T12:43:11;101534.16;;;21.83;53.01
43824;BME280;29470;53.550;9.926;2022-07-22T12:48:15;101519.00;;;21.53;54.59
43824;BME280;29470;53.550;9.926;2022-07-22T12:53:21;101524.66;;;22.40;54.54
43824;BME280;29470;53.550;9.926;2022-07-22T12:58:25;101513.47;;;23.32;50.86
43824;BME280;29470;53.550;9.926;2022-07-22T13:03:29;101523.69;;;21.61;55.11
43824;BME280;29470;53.550;9.926;2022-07-22T13:08:35;101509.19;;;22.78;51.85
43824;BME280;29470;53.550;9.926;2022-07-22T13:13:46;101503.66;;;23.27;50.78
43824;BME280;29470;53.550;9.926;2022-07-22T13:18:49;101509.22;;;23.08;50.65
43824;BME280;29470;53.550;9.926;2022-07-22T13:23:54;101501.34;;;22.52;52.90
43824;BME280;29470;53.550;9.926;2022-07-22T13:28:57;101505.75;;;22.51;53.37
43824;BME280;29470;53.550;9.926;2022-07-22T13:34:00;101501.22;;;22.21;54.55
43824;BME280;29470;53.550;9.926;2022-07-22T13:39:04;101497.94;;;22.29;53.82
43824;BME280;29470;53.550;9.926;2022-07-22T13:44:07;101501.13;;;21.92;54.89
43824;BME280;29470;53.550;9.926;2022-07-22T13:49:11;101504.84;;;22.25;53.41
43824;BME280;29470;53.550;9.926;2022-07-22T13:54:15;101507.88;;;22.92;52.94
43824;BME280;29470;53.550;9.926;2022-07-22T13:59:19;101493.50;;;22.54;52.18
43824;BME280;29470;53.550;9.926;2022-07-22T14:04:22;101493.06;;;22.96;51.44
43824;BME280;29470;53.550;9.926;2022-07-22T14:09:26;101496.38;;;22.89;51.33
43824;BME280;29470;53.550;9.926;2022-07-22T14:14:37;101497.34;;;22.10;54.28
43824;BME280;29470;53.550;9.926;2022-07-22T14:19:39;101497.22;;;21.81;55.74
43824;BME280;29470;53.550;9.926;2022-07-22T14:24:44;101500.28;;;22.19;54.72
43824;BME280;29470;53.550;9.926;2022-07-22T14:29:47;101502.69;;;21.87;53.94
43824;BME280;29470;53.550;9.926;2022-07-22T14:34:49;101496.16;;;21.52;54.47
43824;BME280;29470;53.550;9.926;2022-07-22T14:39:54;101494.69;;;22.36;52.92
43824;BME280;29470;53.550;9.926;2022-07-22T14:44:57;101502.59;;;21.60;55.60
43824;BME280;29470;53.550;9.926;2022-07-22T14:50:00;101503.09;;;21.98;53.80
43824;BME280;29470;53.550;9.926;2022-07-22T14:55:05;101504.91;;;22.27;54.66
43824;BME280;29470;53.550;9.926;2022-07-22T15:00:08;101494.88;;;22.70;51.88
43824;BME280;29470;53.550;9.926;2022-07-22T15:05:11;101488.34;;;22.57;52.27
43824;BME280;29470;53.550;9.926;2022-07-22T15:10:17;101485.19;;;22.41;51.94
43824;BME280;29470;53.550;9.926;2022-07-22T15:15:20;101478.63;;;21.28;53.92
43824;BME280;29470;53.550;9.926;2022-07-22T15:20:24;101484.81;;;21.06;56.05
43824;BME280;29470;53.550;9.926;2022-07-22T15:25:28;101487.47;;;21.54;53.90
43824;BME280;29470;53.550;9.926;2022-07-22T15:30:31;101484.22;;;21.61;53.26
43824;BME280;29470;53.550;9.926;2022-07-22T15:35:34;101475.50;;;22.42;51.98
43824;BME280;29470;53.550;9.926;2022-07-22T15:40:38;101478.06;;;22.11;51.51
43824;BME280;29470;53.550;9.926;2022-07-22T15:45:41;101474.47;;;21.59;52.27
43824;BME280;29470;53.550;9.926;2022-07-22T15:50:44;101466.53;;;21.33;54.12
43824;BME280;29470;53.550;9.926;2022-07-22T15:55:49;101467.72;;;21.66;53.48
43824;BME280;29470;53.550;9.926;2022-07-22T16:00:52;101481.81;;;21.19;53.98
43824;BME280;29470;53.550;9.926;2022-07-22T16:05:55;101481.66;;;20.92;54.34
43824;BME280;29470;53.550;9.926;2022-07-22T16:10:59;101478.66;;;21.05;54.76
43824;BME280;29470;53.550;9.926;2022-07-22T16:16:03;101457.31;;;21.20;54.27
43824;BME280;29470;53.550;9.926;2022-07-22T16:21:06;101466.81;;;21.41;53.01
43824;BME280;29470;53.550;9.926;2022-07-22T16:26:10;101471.41;;;20.77;55.74
43824;BME280;29470;53.550;9.926;2022-07-22T16:31:13;101468.22;;;20.63;56.86
43824;BME280;29470;53.550;9.926;2022-07-22T16:36:16;101461.06;;;20.80;55.08
43824;BME280;29470;53.550;9.926;2022-07-22T16:41:21;101461.66;;;20.51;56.90
43824;BME280;29470;53.550;9.926;2022-07-22T16:46:27;101449.75;;;20.82;54.22
43824;BME280;29470;53.550;9.926;2022-07-22T16:51:30;101454.00;;;20.79;54.30
43824;BME280;29470;53.550;9.926;2022-07-22T16:56:34;101452.22;;;20.56;56.01
43824;BME280;29470;53.550;9.926;2022-07-22T17:01:37;101459.59;;;20.44;57.59
43824;BME280;29470;53.550;9.926;2022-07-22T17:06:40;101454.44;;;20.68;57.97
43824;BME280;29470;53.550;9.926;2022-07-22T17:11:44;101446.25;;;20.82;56.83
43824;BME280;29470;53.550;9.926;2022-07-22T17:16:47;101446.53;;;20.45;59.04
43824;BME280;29470;53.550;9.926;2022-07-22T17:21:50;101444.63;;;20.41;59.67
43824;BME280;29470;53.550;9.926;2022-07-22T17:26:55;101448.13;;;20.19;60.34
43824;BME280;29470;53.550;9.926;2022-07-22T17:31:58;101444.16;;;20.08;60.96
43824;BME280;29470;53.550;9.926;2022-07-22T17:37:01;101436.41;;;19.90;62.07
43824;BME280;29470;53.550;9.926;2022-07-22T17:42:05;101436.84;;;19.60;62.48
43824;BME280;29470;53.550;9.926;2022-07-22T17:47:08;101438.91;;;19.67;61.85
43824;BME280;29470;53.550;9.926;2022-07-22T17:52:11;101439.16;;;19.73;61.71
43824;BME280;29470;53.550;9.926;2022-07-22T17:57:15;101434.22;;;19.60;61.50
43824;BME280;29470;53.550;9.926;2022-07-22T18:02:19;101436.34;;;19.27;63.15
43824;BME280;29470;53.550;9.926;2022-07-22T18:07:22;101432.41;;;19.58;61.93
43824;BME280;29470;53.550;9.926;2022-07-22T18:12:27;101423.69;;;19.38;63.17
43824;BME280;29470;53.550;9.926;2022-07-22T18:17:32;101425.03;;;19.28;63.11
43824;BME280;29470;53.550;9.926;2022-07-22T18:22:36;101420.19;;;18.98;65.00
43824;BME280;29470;53.550;9.926;2022-07-22T18:27:40;101440.06;;;18.95;65.94
43824;BME280;29470;53.550;9.926;2022-07-22T18:32:44;101440.75;;;19.09;65.47
43824;BME280;29470;53.550;9.926;2022-07-22T18:37:47;101429.91;;;19.01;64.98
43824;BME280;29470;53.550;9.926;2022-07-22T18:42:52;101433.81;;;18.91;65.53
43824;BME280;29470;53.550;9.926;2022-07-22T18:47:55;101435.38;;;18.88;65.42
43824;BME280;29470;53.550;9.926;2022-07-22T18:52:57;101436.88;;;18.45;66.03
43824;BME280;29470;53.550;9.926;2022-07-22T18:58:02;101430.03;;;18.66;65.48
43824;BME280;29470;53.550;9.926;2022-07-22T19:03:05;101428.78;;;18.58;65.68
43824;BME280;29470;53.550;9.926;2022-07-22T19:08:08;101425.28;;;18.39;66.54
43824;BME280;29470;53.550;9.926;2022-07-22T19:13:12;101436.06;;;18.46;65.52
43824;BME280;29470;53.550;9.926;2022-07-22T19:18:15;101427.59;;;18.51;65.50
43824;BME280;29470;53.550;9.926;2022-07-22T19:23:21;101431.03;;;18.50;65.73
43824;BME280;29470;53.550;9.926;2022-07-22T19:28:25;101435.16;;;18.27;66.71
43824;BME280;29470;53.550;9.926;2022-07-22T19:33:28;101444.19;;;18.16;66.69
43824;BME280;29470;53.550;9.926;2022-07-22T19:38:30;101446.44;;;18.26;66.81
43824;BME280;29470;53.550;9.926;2022-07-22T19:43:35;101450.03;;;18.28;66.67
43824;BME280;29470;53.550;9.926;2022-07-22T19:48:37;101448.75;;;18.20;66.32
43824;BME280;29470;53.550;9.926;2022-07-22T19:53:40;101448.66;;;18.00;67.18
43824;BME280;29470;53.550;9.926;2022-07-22T19:58:45;101441.81;;;18.20;66.94
43824;BME280;29470;53.550;9.926;2022-07-22T20:03:48;101432.09;;;18.18;67.04
43824;BME280;29470;53.550;9.926;2022-07-22T20:08:55;101438.75;;;18.29;66.81
43824;BME280;29470;53.550;9.926;2022-07-22T20:13:59;101446.97;;;18.01;67.89
43824;BME280;29470;53.550;9.926;2022-07-22T20:19:02;101450.63;;;17.88;68.63
43824;BME280;29470;53.550;9.926;2022-07-22T20:24:06;101447.94;;;17.86;68.95
43824;BME280;29470;53.550;9.926;2022-07-22T20:29:10;101422.59;;;17.85;68.61
43824;BME280;29470;53.550;9.926;2022-07-22T20:34:13;101419.38;;;17.91;68.62
43824;BME280;29470;53.550;9.926;2022-07-22T20:39:16;101419.47;;;17.92;68.31
43824;BME280;29470;53.550;9.926;2022-07-22T20:44:20;101422.13;;;17.76;68.94
43824;BME280;29470;53.550;9.926;2022-07-22T20:49:23;101430.94;;;17.60;69.34
43824;BME280;29470;53.550;9.926;2022-07-22T20:54:26;101423.25;;;17.63;70.26
43824;BME280;29470;53.550;9.926;2022-07-22T20:59:30;101433.56;;;17.78;69.00
43824;BME280;29470;53.550;9.926;2022-07-22T21:04:33;101437.31;;;17.65;69.79
43824;BME280;29470;53.550;9.926;2022-07-22T21:09:35;101431.94;;;17.45;70.83
43824;BME280;29470;53.550;9.926;2022-07-22T21:14:40;101431.81;;;17.60;70.73
43824;BME280;29470;53.550;9.926;2022-07-22T21:19:42;101439.28;;;17.52;71.16
43824;BME280;29470;53.550;9.926;2022-07-22T21:24:45;101438.47;;;17.54;71.24
43824;BME280;29470;53.550;9.926;2022-07-22T21:29:50;101433.06;;;17.50;70.91
43824;BME280;29470;53.550;9.926;2022-07-22T21:34:53;101430.19;;;17.62;70.71
43824;BME280;29470;53.550;9.926;2022-07-22T21:39:56;101419.19;;;17.51;71.12
43824;BME280;29470;53.550;9.926;2022-07-22T21:45:00;101425.78;;;17.45;71.52
43824;BME280;29470;53.550;9.926;2022-07-22T21:50:04;101406.47;;;17.25;71.82
43824;BME280;29470;53.550;9.926;2022-07-22T21:55:07;101408.97;;;17.23;72.45
43824;BME280;29470;53.550;9.926;2022-07-22T22:00:12;101398.50;;;17.23;72.69
43824;BME280;29470;53.550;9.926;2022-07-22T22:05:15;101406.28;;;17.21;73.00
43824;BME280;29470;53.550;9.926;2022-07-22T22:10:18;101400.31;;;17.24;71.81
43824;BME280;29470;53.550;9.926;2022-07-22T22:15:23;101401.28;;;17.26;72.80
43824;BME280;29470;53.550;9.926;2022-07-22T22:20:25;101401.44;;;17.29;72.39
43824;BME280;29470;53.550;9.926;2022-07-22T22:25:28;101398.84;;;17.29;72.68
43824;BME280;29470;53.550;9.926;2022-07-22T22:30:32;101394.38;;;17.10;73.59
43824;BME280;29470;53.550;9.926;2022-07-22T22:35:35;101395.34;;;17.29;73.32
43824;BME280;29470;53.550;9.926;2022-07-22T22:40:39;101386.53;;;17.27;72.82
43824;BME280;29470;53.550;9.926;2022-07-22T22:45:43;101387.66;;;17.15;73.54
43824;BME280;29470;53.550;9.926;2022-07-22T22:50:46;101390.69;;;17.23;73.03
43824;BME280;29470;53.550;9.926;2022-07-22T22:55:49;101386.53;;;17.10;73.77
43824;BME280;29470;53.550;9.926;2022-07-22T23:00:53;101389.13;;;17.27;73.08
43824;BME280;29470;53.550;9.926;2022-07-22T23:05:56;101391.25;;;17.34;73.12
43824;BME280;29470;53.550;9.926;2022-07-22T23:10:59;101394.84;;;17.19;73.00
43824;BME280;29470;53.550;9.926;2022-07-22T23:16:04;101394.28;;;17.25;72.82
43824;BME280;29470;53.550;9.926;2022-07-22T23:21:07;101394.94;;;17.21;72.58
43824;BME280;29470;53.550;9.926;2022-07-22T23:26:10;101395.34;;;17.12;73.07
43824;BME280;29470;53.550;9.926;2022-07-22T23:31:14;101402.53;;;17.00;73.42
43824;BME280;29470;53.550;9.926;2022-07-22T23:36:17;101419.53;;;17.08;73.45
43824;BME280;29470;53.550;9.926;2022-07-22T23:41:19;101415.28;;;17.27;72.88
43824;BME280;29470;53.550;9.926;2022-07-22T23:46:24;101427.38;;;17.25;72.28
43824;BME280;29470;53.550;9.926;2022-07-22T23:51:30;101418.72;;;17.26;71.84
43824;BME280;29470;53.550;9.926;2022-07-22T23:56:35;101423.13;;;17.27;71.12
